sensor_id;sensor_type;location;lat;lon;timestamp;P1;durP1;ratioP1;P2;durP2;ratioP2
14169;SDS011;63889;50.596;8.690;2023-02-21T00:02:18;35.50;;;14.43;;
14169;SDS011;63889;50.596;8.690;2023-02-21T00:05:02;35.15;;;14.15;;
14169;SDS011;63889;50.596;8.690;2023-02-21T00:07:46;35.58;;;14.30;;
14169;SDS011;63889;50.596;8.690;2023-02-21T00:10:30;39.10;;;14.40;;
14169;SDS011;63889;50.596;8.690;2023-02-21T00:13:14;30.63;;;13.68;;
14169;SDS011;63889;50.596;8.690;2023-02-21T00:15:58;33.88;;;14.32;;
14169;SDS011;63889;50.596;8.690;2023-02-21T00:18:42;31.13;;;14.10;;
14169;SDS011;63889;50.596;8.690;2023-02-21T00:21:27;38.03;;;15.75;;
14169;SDS011;63889;50.596;8.690;2023-02-21T00:24:12;34.25;;;14.68;;
14169;SDS011;63889;50.596;8.690;2023-02-21T00:26:58;31.23;;;13.40;;
14169;SDS011;63889;50.596;8.690;2023-02-21T00:29:43;36.83;;;14.45;;
14169;SDS011;63889;50.596;8.690;2023-02-21T00:32:27;33.25;;;13.95;;
14169;SDS011;63889;50.596;8.690;2023-02-21T00:35:11;30.88;;;14.52;;
14169;SDS011;63889;50.596;8.690;2023-02-21T00:37:55;34.75;;;14.57;;
14169;SDS011;63889;50.596;8.690;2023-02-21T00:40:39;32.88;;;14.40;;
14169;SDS011;63889;50.596;8.690;2023-02-21T00:43:27;36.53;;;15.07;;
14169;SDS011;63889;50.596;8.690;2023-02-21T00:46:12;33.85;;;14.40;;
14169;SDS011;63889;50.596;8.690;2023-02-21T00:48:56;35.03;;;15.13;;
14169;SDS011;63889;50.596;8.690;2023-02-21T00:51:40;29.88;;;13.10;;
14169;SDS011;63889;50.596;8.690;2023-02-21T00:54:24;34.05;;;14.93;;
14169;SDS011;63889;50.596;8.690;2023-02-21T00:57:08;31.33;;;14.77;;
14169;SDS011;63889;50.596;8.690;2023-02-21T00:59:52;35.83;;;15.30;;
14169;SDS011;63889;50.596;8.690;2023-02-21T01:02:36;34.90;;;14.07;;
14169;SDS011;63889;50.596;8.690;2023-02-21T01:05:20;36.15;;;14.27;;
14169;SDS011;63889;50.596;8.690;2023-02-21T01:08:04;37.45;;;14.88;;
14169;SDS011;63889;50.596;8.690;2023-02-21T01:10:48;40.55;;;16.00;;
14169;SDS011;63889;50.596;8.690;2023-02-21T01:13:32;32.83;;;13.38;;
14169;SDS011;63889;50.596;8.690;2023-02-21T01:16:16;34.25;;;14.75;;
14169;SDS011;63889;50.596;8.690;2023-02-21T01:19:00;41.50;;;14.23;;
14169;SDS011;63889;50.596;8.690;2023-02-21T01:21:44;34.53;;;14.35;;
14169;SDS011;63889;50.596;8.690;2023-02-21T01:24:28;38.20;;;15.50;;
14169;SDS011;63889;50.596;8.690;2023-02-21T01:27:12;33.33;;;15.32;;
14169;SDS011;63889;50.596;8.690;2023-02-21T01:29:56;38.13;;;14.93;;
14169;SDS011;63889;50.596;8.690;2023-02-21T01:32:40;37.50;;;14.60;;
14169;SDS011;63889;50.596;8.690;2023-02-21T01:35:24;35.80;;;15.20;;
14169;SDS011;63889;50.596;8.690;2023-02-21T01:38:08;38.35;;;16.35;;
14169;SDS011;63889;50.596;8.690;2023-02-21T01:40:52;39.83;;;15.55;;
14169;SDS011;63889;50.596;8.690;2023-02-21T01:43:36;39.22;;;16.42;;
14169;SDS011;63889;50.596;8.690;2023-02-21T01:46:20;39.25;;;15.55;;
14169;SDS011;63889;50.596;8.690;2023-02-21T01:49:09;40.47;;;15.52;;
14169;SDS011;63889;50.596;8.690;2023-02-21T01:51:57;43.88;;;17.20;;
14169;SDS011;63889;50.596;8.690;2023-02-21T01:54:45;39.03;;;15.43;;
14169;SDS011;63889;50.596;8.690;2023-02-21T01:57:32;39.78;;;17.92;;
14169;SDS011;63889;50.596;8.690;2023-02-21T02:00:18;45.83;;;17.27;;
14169;SDS011;63889;50.596;8.690;2023-02-21T02:03:03;40.22;;;17.00;;
14169;SDS011;63889;50.596;8.690;2023-02-21T02:05:50;39.63;;;16.48;;
14169;SDS011;63889;50.596;8.690;2023-02-21T02:08:46;42.80;;;17.42;;
14169;SDS011;63889;50.596;8.690;2023-02-21T02:17:43;40.60;;;18.10;;
14169;SDS011;63889;50.596;8.690;2023-02-21T02:39:45;49.78;;;17.88;;
14169;SDS011;63889;50.596;8.690;2023-02-21T02:45:07;50.83;;;17.65;;
14169;SDS011;63889;50.596;8.690;2023-02-21T02:47:39;41.63;;;16.35;;
14169;SDS011;63889;50.596;8.690;2023-02-21T02:50:08;42.03;;;17.58;;
14169;SDS011;63889;50.596;8.690;2023-02-21T02:52:36;46.95;;;18.15;;
14169;SDS011;63889;50.596;8.690;2023-02-21T02:55:05;39.13;;;16.27;;
14169;SDS011;63889;50.596;8.690;2023-02-21T02:57:47;42.05;;;17.67;;
14169;SDS011;63889;50.596;8.690;2023-02-21T03:00:15;40.22;;;17.15;;
14169;SDS011;63889;50.596;8.690;2023-02-21T03:15:46;38.15;;;16.65;;
14169;SDS011;63889;50.596;8.690;2023-02-21T03:21:10;45.10;;;17.67;;
14169;SDS011;63889;50.596;8.690;2023-02-21T03:23:41;47.50;;;18.02;;
14169;SDS011;63889;50.596;8.690;2023-02-21T03:26:08;53.78;;;18.10;;
14169;SDS011;63889;50.596;8.690;2023-02-21T03:28:36;43.40;;;17.52;;
14169;SDS011;63889;50.596;8.690;2023-02-21T03:31:02;44.90;;;16.88;;
14169;SDS011;63889;50.596;8.690;2023-02-21T03:33:28;39.17;;;15.80;;
14169;SDS011;63889;50.596;8.690;2023-02-21T03:35:54;42.88;;;18.20;;
14169;SDS011;63889;50.596;8.690;2023-02-21T03:38:22;41.45;;;15.98;;
14169;SDS011;63889;50.596;8.690;2023-02-21T03:40:48;42.47;;;15.88;;
14169;SDS011;63889;50.596;8.690;2023-02-21T03:43:13;41.42;;;16.88;;
14169;SDS011;63889;50.596;8.690;2023-02-21T03:45:39;44.13;;;15.77;;
14169;SDS011;63889;50.596;8.690;2023-02-21T03:48:04;38.65;;;16.60;;
14169;SDS011;63889;50.596;8.690;2023-02-21T03:50:30;41.30;;;16.70;;
14169;SDS011;63889;50.596;8.690;2023-02-21T03:52:56;40.85;;;16.65;;
14169;SDS011;63889;50.596;8.690;2023-02-21T03:55:21;43.28;;;16.40;;
14169;SDS011;63889;50.596;8.690;2023-02-21T03:57:47;43.15;;;16.45;;
14169;SDS011;63889;50.596;8.690;2023-02-21T04:00:13;40.92;;;15.35;;
14169;SDS011;63889;50.596;8.690;2023-02-21T04:02:39;40.22;;;15.73;;
14169;SDS011;63889;50.596;8.690;2023-02-21T04:05:04;45.58;;;14.77;;
14169;SDS011;63889;50.596;8.690;2023-02-21T04:07:30;34.10;;;14.73;;
14169;SDS011;63889;50.596;8.690;2023-02-21T04:09:56;37.05;;;14.23;;
14169;SDS011;63889;50.596;8.690;2023-02-21T04:12:21;42.45;;;16.27;;
14169;SDS011;63889;50.596;8.690;2023-02-21T04:14:48;42.45;;;15.60;;
14169;SDS011;63889;50.596;8.690;2023-02-21T04:17:16;43.17;;;14.88;;
14169;SDS011;63889;50.596;8.690;2023-02-21T04:19:42;38.08;;;15.15;;
14169;SDS011;63889;50.596;8.690;2023-02-21T04:22:07;38.97;;;15.48;;
14169;SDS011;63889;50.596;8.690;2023-02-21T04:24:33;35.53;;;15.07;;
14169;SDS011;63889;50.596;8.690;2023-02-21T04:26:58;34.30;;;14.40;;
14169;SDS011;63889;50.596;8.690;2023-02-21T04:29:24;42.53;;;14.95;;
14169;SDS011;63889;50.596;8.690;2023-02-21T04:31:50;37.13;;;14.27;;
14169;SDS011;63889;50.596;8.690;2023-02-21T04:34:15;39.17;;;15.68;;
14169;SDS011;63889;50.596;8.690;2023-02-21T04:36:41;41.55;;;14.88;;
14169;SDS011;63889;50.596;8.690;2023-02-21T04:39:07;42.00;;;15.38;;
14169;SDS011;63889;50.596;8.690;2023-02-21T04:41:33;42.92;;;15.48;;
14169;SDS011;63889;50.596;8.690;2023-02-21T04:43:58;38.78;;;16.02;;
14169;SDS011;63889;50.596;8.690;2023-02-21T04:46:24;38.72;;;15.07;;
14169;SDS011;63889;50.596;8.690;2023-02-21T04:48:50;39.03;;;14.18;;
14169;SDS011;63889;50.596;8.690;2023-02-21T04:51:17;34.90;;;14.07;;
14169;SDS011;63889;50.596;8.690;2023-02-21T04:53:45;40.03;;;14.93;;
14169;SDS011;63889;50.596;8.690;2023-02-21T04:56:12;40.30;;;15.82;;
14169;SDS011;63889;50.596;8.690;2023-02-21T04:58:37;36.67;;;14.70;;
14169;SDS011;63889;50.596;8.690;2023-02-21T05:01:03;39.05;;;14.73;;
14169;SDS011;63889;50.596;8.690;2023-02-21T05:03:29;39.97;;;14.13;;
14169;SDS011;63889;50.596;8.690;2023-02-21T05:05:54;39.90;;;14.82;;
14169;SDS011;63889;50.596;8.690;2023-02-21T05:11:09;41.45;;;15.02;;
14169;SDS011;63889;50.596;8.690;2023-02-21T05:13:35;40.75;;;15.52;;
14169;SDS011;63889;50.596;8.690;2023-02-21T05:16:00;33.58;;;14.82;;
14169;SDS011;63889;50.596;8.690;2023-02-21T05:18:26;34.35;;;13.82;;
14169;SDS011;63889;50.596;8.690;2023-02-21T05:20:52;37.40;;;14.95;;
14169;SDS011;63889;50.596;8.690;2023-02-21T05:23:18;41.97;;;13.95;;
14169;SDS011;63889;50.596;8.690;2023-02-21T05:26:19;38.63;;;14.70;;
14169;SDS011;63889;50.596;8.690;2023-02-21T05:28:43;43.47;;;15.75;;
14169;SDS011;63889;50.596;8.690;2023-02-21T05:31:09;34.72;;;14.23;;
14169;SDS011;63889;50.596;8.690;2023-02-21T05:33:34;42.72;;;14.95;;
14169;SDS011;63889;50.596;8.690;2023-02-21T05:36:00;40.70;;;14.50;;
14169;SDS011;63889;50.596;8.690;2023-02-21T05:38:26;34.00;;;14.50;;
14169;SDS011;63889;50.596;8.690;2023-02-21T05:40:51;40.58;;;14.30;;
14169;SDS011;63889;50.596;8.690;2023-02-21T05:43:17;34.15;;;14.10;;
14169;SDS011;63889;50.596;8.690;2023-02-21T05:45:44;46.58;;;17.55;;
14169;SDS011;63889;50.596;8.690;2023-02-21T05:48:10;43.28;;;16.60;;
14169;SDS011;63889;50.596;8.690;2023-02-21T05:50:35;40.47;;;15.63;;
14169;SDS011;63889;50.596;8.690;2023-02-21T05:53:03;39.65;;;14.88;;
14169;SDS011;63889;50.596;8.690;2023-02-21T05:55:29;50.03;;;16.98;;
14169;SDS011;63889;50.596;8.690;2023-02-21T05:57:54;37.45;;;16.52;;
14169;SDS011;63889;50.596;8.690;2023-02-21T06:00:22;38.38;;;17.25;;
14169;SDS011;63889;50.596;8.690;2023-02-21T06:02:49;43.55;;;15.57;;
14169;SDS011;63889;50.596;8.690;2023-02-21T06:05:16;38.55;;;15.82;;
14169;SDS011;63889;50.596;8.690;2023-02-21T06:07:43;40.78;;;16.58;;
14169;SDS011;63889;50.596;8.690;2023-02-21T06:10:08;36.03;;;14.75;;
14169;SDS011;63889;50.596;8.690;2023-02-21T06:12:34;33.55;;;14.18;;
14169;SDS011;63889;50.596;8.690;2023-02-21T06:15:00;37.75;;;14.55;;
14169;SDS011;63889;50.596;8.690;2023-02-21T06:17:26;33.53;;;14.13;;
14169;SDS011;63889;50.596;8.690;2023-02-21T06:19:54;34.35;;;13.32;;
14169;SDS011;63889;50.596;8.690;2023-02-21T06:22:20;39.03;;;14.95;;
14169;SDS011;63889;50.596;8.690;2023-02-21T06:24:45;32.35;;;12.70;;
14169;SDS011;63889;50.596;8.690;2023-02-21T06:27:11;34.15;;;13.43;;
14169;SDS011;63889;50.596;8.690;2023-02-21T06:29:36;38.35;;;13.95;;
14169;SDS011;63889;50.596;8.690;2023-02-21T06:32:02;37.83;;;14.00;;
14169;SDS011;63889;50.596;8.690;2023-02-21T06:34:27;30.45;;;11.98;;
14169;SDS011;63889;50.596;8.690;2023-02-21T06:36:53;30.30;;;12.95;;
14169;SDS011;63889;50.596;8.690;2023-02-21T06:39:20;41.15;;;13.40;;
14169;SDS011;63889;50.596;8.690;2023-02-21T06:41:50;32.28;;;12.45;;
14169;SDS011;63889;50.596;8.690;2023-02-21T06:44:17;36.10;;;13.65;;
14169;SDS011;63889;50.596;8.690;2023-02-21T06:46:43;34.60;;;12.55;;
14169;SDS011;63889;50.596;8.690;2023-02-21T06:49:09;35.03;;;13.07;;
14169;SDS011;63889;50.596;8.690;2023-02-21T06:51:35;33.17;;;12.45;;
14169;SDS011;63889;50.596;8.690;2023-02-21T06:54:09;33.03;;;12.23;;
14169;SDS011;63889;50.596;8.690;2023-02-21T06:56:35;38.63;;;13.05;;
14169;SDS011;63889;50.596;8.690;2023-02-21T06:59:01;26.23;;;11.02;;
14169;SDS011;63889;50.596;8.690;2023-02-21T07:01:27;29.15;;;12.05;;
14169;SDS011;63889;50.596;8.690;2023-02-21T07:03:54;31.33;;;11.68;;
14169;SDS011;63889;50.596;8.690;2023-02-21T07:06:21;31.55;;;11.27;;
14169;SDS011;63889;50.596;8.690;2023-02-21T07:08:46;33.42;;;11.43;;
14169;SDS011;63889;50.596;8.690;2023-02-21T07:11:12;30.48;;;11.82;;
14169;SDS011;63889;50.596;8.690;2023-02-21T07:13:38;31.00;;;11.60;;
14169;SDS011;63889;50.596;8.690;2023-02-21T07:16:04;26.77;;;11.15;;
14169;SDS011;63889;50.596;8.690;2023-02-21T07:18:30;27.52;;;9.80;;
14169;SDS011;63889;50.596;8.690;2023-02-21T07:20:55;26.02;;;9.85;;
14169;SDS011;63889;50.596;8.690;2023-02-21T07:23:21;24.98;;;9.82;;
14169;SDS011;63889;50.596;8.690;2023-02-21T07:25:47;24.33;;;9.75;;
14169;SDS011;63889;50.596;8.690;2023-02-21T07:28:12;21.48;;;9.35;;
14169;SDS011;63889;50.596;8.690;2023-02-21T07:30:38;23.60;;;10.32;;
14169;SDS011;63889;50.596;8.690;2023-02-21T07:33:04;22.92;;;9.38;;
14169;SDS011;63889;50.596;8.690;2023-02-21T07:35:30;29.20;;;10.02;;
14169;SDS011;63889;50.596;8.690;2023-02-21T07:37:55;21.92;;;9.63;;
14169;SDS011;63889;50.596;8.690;2023-02-21T07:40:21;26.60;;;9.63;;
14169;SDS011;63889;50.596;8.690;2023-02-21T07:42:46;23.73;;;9.05;;
14169;SDS011;63889;50.596;8.690;2023-02-21T07:45:12;26.50;;;9.32;;
14169;SDS011;63889;50.596;8.690;2023-02-21T07:47:39;24.90;;;10.55;;
14169;SDS011;63889;50.596;8.690;2023-02-21T07:50:05;21.48;;;8.75;;
14169;SDS011;63889;50.596;8.690;2023-02-21T07:52:31;21.73;;;9.18;;
14169;SDS011;63889;50.596;8.690;2023-02-21T07:54:57;22.92;;;8.40;;
14169;SDS011;63889;50.596;8.690;2023-02-21T07:57:23;22.75;;;9.00;;
14169;SDS011;63889;50.596;8.690;2023-02-21T07:59:48;24.60;;;9.60;;
14169;SDS011;63889;50.596;8.690;2023-02-21T08:02:14;21.65;;;9.48;;
14169;SDS011;63889;50.596;8.690;2023-02-21T08:04:40;28.25;;;9.93;;
14169;SDS011;63889;50.596;8.690;2023-02-21T08:07:06;25.38;;;9.88;;
14169;SDS011;63889;50.596;8.690;2023-02-21T08:09:33;24.73;;;9.45;;
14169;SDS011;63889;50.596;8.690;2023-02-21T08:11:59;28.38;;;10.05;;
14169;SDS011;63889;50.596;8.690;2023-02-21T08:14:25;26.42;;;10.40;;
14169;SDS011;63889;50.596;8.690;2023-02-21T08:16:51;27.15;;;9.52;;
14169;SDS011;63889;50.596;8.690;2023-02-21T08:19:16;26.33;;;10.77;;
14169;SDS011;63889;50.596;8.690;2023-02-21T08:21:46;26.73;;;10.75;;
14169;SDS011;63889;50.596;8.690;2023-02-21T08:24:13;25.95;;;9.80;;
14169;SDS011;63889;50.596;8.690;2023-02-21T08:26:39;23.35;;;9.73;;
14169;SDS011;63889;50.596;8.690;2023-02-21T08:29:06;25.35;;;9.52;;
14169;SDS011;63889;50.596;8.690;2023-02-21T08:31:36;23.23;;;10.15;;
14169;SDS011;63889;50.596;8.690;2023-02-21T08:34:03;25.55;;;10.80;;
14169;SDS011;63889;50.596;8.690;2023-02-21T08:36:31;28.27;;;11.10;;
14169;SDS011;63889;50.596;8.690;2023-02-21T08:38:57;32.25;;;10.60;;
14169;SDS011;63889;50.596;8.690;2023-02-21T08:41:22;26.55;;;10.43;;
14169;SDS011;63889;50.596;8.690;2023-02-21T08:43:49;31.00;;;10.68;;
14169;SDS011;63889;50.596;8.690;2023-02-21T08:46:15;25.23;;;9.63;;
14169;SDS011;63889;50.596;8.690;2023-02-21T08:48:41;25.88;;;10.48;;
14169;SDS011;63889;50.596;8.690;2023-02-21T08:51:06;29.05;;;11.18;;
14169;SDS011;63889;50.596;8.690;2023-02-21T08:53:32;25.80;;;11.00;;
14169;SDS011;63889;50.596;8.690;2023-02-21T08:55:57;27.08;;;11.00;;
14169;SDS011;63889;50.596;8.690;2023-02-21T08:58:23;27.98;;;10.93;;
14169;SDS011;63889;50.596;8.690;2023-02-21T09:00:49;27.05;;;10.68;;
14169;SDS011;63889;50.596;8.690;2023-02-21T09:03:15;28.25;;;11.18;;
14169;SDS011;63889;50.596;8.690;2023-02-21T09:05:40;26.42;;;10.10;;
14169;SDS011;63889;50.596;8.690;2023-02-21T09:08:06;30.80;;;11.55;;
14169;SDS011;63889;50.596;8.690;2023-02-21T09:10:34;32.30;;;11.90;;
14169;SDS011;63889;50.596;8.690;2023-02-21T09:13:00;31.13;;;13.00;;
14169;SDS011;63889;50.596;8.690;2023-02-21T09:15:26;33.28;;;11.60;;
14169;SDS011;63889;50.596;8.690;2023-02-21T09:17:51;27.33;;;11.90;;
14169;SDS011;63889;50.596;8.690;2023-02-21T09:20:19;31.77;;;12.65;;
14169;SDS011;63889;50.596;8.690;2023-02-21T09:22:47;35.47;;;12.60;;
14169;SDS011;63889;50.596;8.690;2023-02-21T09:25:13;34.42;;;12.15;;
14169;SDS011;63889;50.596;8.690;2023-02-21T09:27:40;36.05;;;12.98;;
14169;SDS011;63889;50.596;8.690;2023-02-21T09:30:08;31.10;;;12.13;;
14169;SDS011;63889;50.596;8.690;2023-02-21T09:32:36;35.42;;;12.50;;
14169;SDS011;63889;50.596;8.690;2023-02-21T09:35:02;36.03;;;12.35;;
14169;SDS011;63889;50.596;8.690;2023-02-21T09:37:28;28.30;;;10.73;;
14169;SDS011;63889;50.596;8.690;2023-02-21T09:39:54;29.55;;;10.48;;
14169;SDS011;63889;50.596;8.690;2023-02-21T09:42:21;31.10;;;11.27;;
14169;SDS011;63889;50.596;8.690;2023-02-21T09:44:51;29.75;;;11.75;;
14169;SDS011;63889;50.596;8.690;2023-02-21T09:47:21;28.17;;;10.48;;
14169;SDS011;63889;50.596;8.690;2023-02-21T09:49:57;27.73;;;9.90;;
14169;SDS011;63889;50.596;8.690;2023-02-21T09:52:34;23.15;;;9.00;;
14169;SDS011;63889;50.596;8.690;2023-02-21T09:55:12;27.75;;;9.70;;
14169;SDS011;63889;50.596;8.690;2023-02-21T09:57:46;27.13;;;10.18;;
14169;SDS011;63889;50.596;8.690;2023-02-21T10:00:20;20.63;;;8.50;;
14169;SDS011;63889;50.596;8.690;2023-02-21T10:06:14;20.60;;;8.52;;
14169;SDS011;63889;50.596;8.690;2023-02-21T10:14:18;19.90;;;9.20;;
14169;SDS011;63889;50.596;8.690;2023-02-21T10:17:04;19.52;;;8.65;;
14169;SDS011;63889;50.596;8.690;2023-02-21T10:19:43;18.10;;;8.13;;
14169;SDS011;63889;50.596;8.690;2023-02-21T10:22:13;18.63;;;8.43;;
14169;SDS011;63889;50.596;8.690;2023-02-21T10:24:52;18.85;;;8.55;;
14169;SDS011;63889;50.596;8.690;2023-02-21T10:27:19;16.55;;;8.10;;
14169;SDS011;63889;50.596;8.690;2023-02-21T10:32:20;20.30;;;8.10;;
14169;SDS011;63889;50.596;8.690;2023-02-21T10:34:47;18.80;;;7.70;;
14169;SDS011;63889;50.596;8.690;2023-02-21T10:42:51;19.90;;;7.95;;
14169;SDS011;63889;50.596;8.690;2023-02-21T10:45:23;17.58;;;7.97;;
14169;SDS011;63889;50.596;8.690;2023-02-21T10:48:02;20.65;;;7.15;;
14169;SDS011;63889;50.596;8.690;2023-02-21T10:53:08;15.27;;;7.10;;
14169;SDS011;63889;50.596;8.690;2023-02-21T10:56:04;16.67;;;6.72;;
14169;SDS011;63889;50.596;8.690;2023-02-21T10:58:43;20.90;;;7.40;;
14169;SDS011;63889;50.596;8.690;2023-02-21T11:01:13;21.77;;;7.43;;
14169;SDS011;63889;50.596;8.690;2023-02-21T11:03:46;18.40;;;7.38;;
14169;SDS011;63889;50.596;8.690;2023-02-21T11:06:23;19.63;;;7.85;;
14169;SDS011;63889;50.596;8.690;2023-02-21T11:08:49;18.40;;;7.32;;
14169;SDS011;63889;50.596;8.690;2023-02-21T11:11:14;21.02;;;7.50;;
14169;SDS011;63889;50.596;8.690;2023-02-21T11:13:40;19.38;;;8.55;;
14169;SDS011;63889;50.596;8.690;2023-02-21T11:16:16;21.98;;;9.43;;
14169;SDS011;63889;50.596;8.690;2023-02-21T11:18:43;22.35;;;9.32;;
14169;SDS011;63889;50.596;8.690;2023-02-21T11:21:10;24.90;;;8.25;;
14169;SDS011;63889;50.596;8.690;2023-02-21T11:23:37;20.85;;;8.70;;
14169;SDS011;63889;50.596;8.690;2023-02-21T11:26:18;20.67;;;9.48;;
14169;SDS011;63889;50.596;8.690;2023-02-21T11:28:44;21.63;;;8.18;;
14169;SDS011;63889;50.596;8.690;2023-02-21T11:31:27;22.00;;;8.02;;
14169;SDS011;63889;50.596;8.690;2023-02-21T11:33:56;15.82;;;7.07;;
14169;SDS011;63889;50.596;8.690;2023-02-21T11:36:31;19.42;;;7.82;;
14169;SDS011;63889;50.596;8.690;2023-02-21T11:39:00;26.35;;;7.97;;
14169;SDS011;63889;50.596;8.690;2023-02-21T11:41:51;21.30;;;7.18;;
14169;SDS011;63889;50.596;8.690;2023-02-21T11:44:27;17.75;;;7.18;;
14169;SDS011;63889;50.596;8.690;2023-02-21T11:52:22;19.65;;;7.10;;
14169;SDS011;63889;50.596;8.690;2023-02-21T11:54:50;14.38;;;6.45;;
14169;SDS011;63889;50.596;8.690;2023-02-21T12:00:28;13.18;;;6.18;;
14169;SDS011;63889;50.596;8.690;2023-02-21T12:05:52;11.30;;;4.78;;
14169;SDS011;63889;50.596;8.690;2023-02-21T12:17:33;10.88;;;5.05;;
14169;SDS011;63889;50.596;8.690;2023-02-21T12:23:07;10.90;;;4.50;;
14169;SDS011;63889;50.596;8.690;2023-02-21T12:26:40;11.45;;;5.47;;
14169;SDS011;63889;50.596;8.690;2023-02-21T12:32:03;10.43;;;4.72;;
14169;SDS011;63889;50.596;8.690;2023-02-21T12:40:03;13.02;;;5.43;;
14169;SDS011;63889;50.596;8.690;2023-02-21T12:48:24;15.38;;;6.18;;
14169;SDS011;63889;50.596;8.690;2023-02-21T12:50:53;12.23;;;5.45;;
14169;SDS011;63889;50.596;8.690;2023-02-21T12:53:28;18.17;;;6.93;;
14169;SDS011;63889;50.596;8.690;2023-02-21T12:58:53;14.05;;;5.93;;
14169;SDS011;63889;50.596;8.690;2023-02-21T13:01:29;13.40;;;6.60;;
14169;SDS011;63889;50.596;8.690;2023-02-21T13:04:02;17.30;;;6.60;;
14169;SDS011;63889;50.596;8.690;2023-02-21T13:14:19;14.90;;;6.38;;
14169;SDS011;63889;50.596;8.690;2023-02-21T13:16:51;15.93;;;6.40;;
14169;SDS011;63889;50.596;8.690;2023-02-21T13:19:17;15.10;;;6.47;;
14169;SDS011;63889;50.596;8.690;2023-02-21T13:25:09;12.68;;;5.30;;
14169;SDS011;63889;50.596;8.690;2023-02-21T13:33:05;13.23;;;4.88;;
14169;SDS011;63889;50.596;8.690;2023-02-21T13:35:32;10.75;;;5.88;;
14169;SDS011;63889;50.596;8.690;2023-02-21T13:38:02;12.93;;;7.00;;
14169;SDS011;63889;50.596;8.690;2023-02-21T13:40:35;15.57;;;6.32;;
14169;SDS011;63889;50.596;8.690;2023-02-21T13:43:11;10.77;;;5.72;;
14169;SDS011;63889;50.596;8.690;2023-02-21T13:45:43;16.13;;;5.97;;
14169;SDS011;63889;50.596;8.690;2023-02-21T13:48:16;9.73;;;5.55;;
14169;SDS011;63889;50.596;8.690;2023-02-21T13:50:56;17.55;;;5.43;;
14169;SDS011;63889;50.596;8.690;2023-02-21T13:53:30;13.23;;;6.38;;
14169;SDS011;63889;50.596;8.690;2023-02-21T13:56:19;10.27;;;5.80;;
14169;SDS011;63889;50.596;8.690;2023-02-21T13:59:28;12.05;;;6.03;;
14169;SDS011;63889;50.596;8.690;2023-02-21T14:04:59;14.70;;;6.22;;
14169;SDS011;63889;50.596;8.690;2023-02-21T14:07:45;16.25;;;6.18;;
14169;SDS011;63889;50.596;8.690;2023-02-21T14:10:19;16.77;;;6.93;;
14169;SDS011;63889;50.596;8.690;2023-02-21T14:12:56;13.07;;;6.57;;
14169;SDS011;63889;50.596;8.690;2023-02-21T14:15:34;13.32;;;7.05;;
14169;SDS011;63889;50.596;8.690;2023-02-21T14:18:01;12.75;;;6.20;;
14169;SDS011;63889;50.596;8.690;2023-02-21T14:20:27;12.57;;;6.40;;
14169;SDS011;63889;50.596;8.690;2023-02-21T14:22:53;14.07;;;5.93;;
14169;SDS011;63889;50.596;8.690;2023-02-21T14:25:23;13.60;;;6.50;;
14169;SDS011;63889;50.596;8.690;2023-02-21T14:27:50;14.52;;;7.03;;
14169;SDS011;63889;50.596;8.690;2023-02-21T14:30:30;13.43;;;6.45;;
14169;SDS011;63889;50.596;8.690;2023-02-21T14:33:08;17.60;;;7.05;;
14169;SDS011;63889;50.596;8.690;2023-02-21T14:35:53;11.07;;;5.95;;
14169;SDS011;63889;50.596;8.690;2023-02-21T14:38:24;17.08;;;7.03;;
14169;SDS011;63889;50.596;8.690;2023-02-21T14:49:46;13.93;;;6.97;;
14169;SDS011;63889;50.596;8.690;2023-02-21T14:55:15;13.43;;;7.25;;
14169;SDS011;63889;50.596;8.690;2023-02-21T15:03:59;15.82;;;7.22;;
14169;SDS011;63889;50.596;8.690;2023-02-21T15:06:32;16.13;;;6.97;;
14169;SDS011;63889;50.596;8.690;2023-02-21T15:09:09;13.15;;;6.97;;
14169;SDS011;63889;50.596;8.690;2023-02-21T15:11:37;15.02;;;7.75;;
14169;SDS011;63889;50.596;8.690;2023-02-21T15:14:11;13.80;;;6.88;;
14169;SDS011;63889;50.596;8.690;2023-02-21T15:16:40;19.83;;;8.05;;
14169;SDS011;63889;50.596;8.690;2023-02-21T15:19:16;20.10;;;7.45;;
14169;SDS011;63889;50.596;8.690;2023-02-21T15:21:45;12.88;;;6.35;;
14169;SDS011;63889;50.596;8.690;2023-02-21T15:24:12;12.65;;;6.85;;
14169;SDS011;63889;50.596;8.690;2023-02-21T15:26:39;15.95;;;7.03;;
14169;SDS011;63889;50.596;8.690;2023-02-21T15:29:06;20.33;;;7.57;;
14169;SDS011;63889;50.596;8.690;2023-02-21T15:31:52;14.95;;;6.53;;
14169;SDS011;63889;50.596;8.690;2023-02-21T15:39:51;11.70;;;5.43;;
14169;SDS011;63889;50.596;8.690;2023-02-21T15:42:20;11.52;;;5.90;;
14169;SDS011;63889;50.596;8.690;2023-02-21T15:44:50;11.23;;;5.93;;
14169;SDS011;63889;50.596;8.690;2023-02-21T15:47:26;12.98;;;5.68;;
14169;SDS011;63889;50.596;8.690;2023-02-21T15:49:59;10.85;;;6.00;;
14169;SDS011;63889;50.596;8.690;2023-02-21T15:52:37;16.33;;;6.07;;
14169;SDS011;63889;50.596;8.690;2023-02-21T15:57:42;13.57;;;5.60;;
14169;SDS011;63889;50.596;8.690;2023-02-21T16:00:24;11.90;;;5.60;;
14169;SDS011;63889;50.596;8.690;2023-02-21T16:02:56;13.07;;;5.50;;
14169;SDS011;63889;50.596;8.690;2023-02-21T16:05:49;11.43;;;5.35;;
14169;SDS011;63889;50.596;8.690;2023-02-21T16:08:15;9.57;;;5.18;;
14169;SDS011;63889;50.596;8.690;2023-02-21T16:10:41;11.52;;;5.40;;
14169;SDS011;63889;50.596;8.690;2023-02-21T16:13:08;12.63;;;5.90;;
14169;SDS011;63889;50.596;8.690;2023-02-21T16:15:34;10.50;;;5.57;;
14169;SDS011;63889;50.596;8.690;2023-02-21T16:18:02;15.13;;;5.50;;
14169;SDS011;63889;50.596;8.690;2023-02-21T16:20:33;13.18;;;5.30;;
14169;SDS011;63889;50.596;8.690;2023-02-21T16:28:28;12.73;;;4.93;;
14169;SDS011;63889;50.596;8.690;2023-02-21T16:30:55;13.13;;;5.15;;
14169;SDS011;63889;50.596;8.690;2023-02-21T16:33:23;17.92;;;6.22;;
14169;SDS011;63889;50.596;8.690;2023-02-21T16:35:49;12.60;;;5.90;;
14169;SDS011;63889;50.596;8.690;2023-02-21T16:38:17;14.35;;;6.72;;
14169;SDS011;63889;50.596;8.690;2023-02-21T16:40:44;16.35;;;6.65;;
14169;SDS011;63889;50.596;8.690;2023-02-21T16:43:15;14.77;;;6.63;;
14169;SDS011;63889;50.596;8.690;2023-02-21T16:45:45;18.88;;;8.73;;
14169;SDS011;63889;50.596;8.690;2023-02-21T16:48:33;50.45;;;15.88;;
14169;SDS011;63889;50.596;8.690;2023-02-21T16:50:58;35.30;;;12.25;;
14169;SDS011;63889;50.596;8.690;2023-02-21T16:53:29;55.38;;;24.25;;
14169;SDS011;63889;50.596;8.690;2023-02-21T16:55:55;48.33;;;20.90;;
14169;SDS011;63889;50.596;8.690;2023-02-21T16:58:24;32.85;;;14.32;;
14169;SDS011;63889;50.596;8.690;2023-02-21T17:00:54;22.52;;;11.45;;
14169;SDS011;63889;50.596;8.690;2023-02-21T17:03:21;19.58;;;9.55;;
14169;SDS011;63889;50.596;8.690;2023-02-21T17:05:48;22.67;;;8.27;;
14169;SDS011;63889;50.596;8.690;2023-02-21T17:08:15;15.55;;;6.95;;
14169;SDS011;63889;50.596;8.690;2023-02-21T17:10:41;20.40;;;7.50;;
14169;SDS011;63889;50.596;8.690;2023-02-21T17:13:06;20.55;;;7.28;;
14169;SDS011;63889;50.596;8.690;2023-02-21T17:15:32;17.05;;;6.47;;
14169;SDS011;63889;50.596;8.690;2023-02-21T17:17:58;16.80;;;7.47;;
14169;SDS011;63889;50.596;8.690;2023-02-21T17:20:24;19.92;;;7.68;;
14169;SDS011;63889;50.596;8.690;2023-02-21T17:22:50;21.27;;;7.40;;
14169;SDS011;63889;50.596;8.690;2023-02-21T17:25:17;17.42;;;7.35;;
14169;SDS011;63889;50.596;8.690;2023-02-21T17:27:43;14.52;;;7.68;;
14169;SDS011;63889;50.596;8.690;2023-02-21T17:30:09;20.33;;;8.30;;
14169;SDS011;63889;50.596;8.690;2023-02-21T17:32:36;18.80;;;8.32;;